Time;durP1;ratioP1;P1;durP2;ratioP2;P2;SDS_P1;SDS_P2;PMS_P1;PMS_P2;Temp;Humidity;BMP_temperature;BMP_pressure;BME280_temperature;BME280_humidity;BME280_pressure;Samples;Min_cycle;Max_cycle;Signal;HPM_P1;HPM_P2
2021/09/05 00:02:06;;;;;;;4.43;1.88;;;42.30;18.90;;;;;;5116290;27;20069;-64
2021/09/05 00:04:33;;;;;;;7.00;1.70;;;42.20;18.50;;;;;;5112154;27;20071;-62
2021/09/05 00:06:59;;;;;;;2.38;1.33;;;42.20;19.60;;;;;;5108268;27;20092;-65
2021/09/05 00:09:26;;;;;;;7.25;1.45;;;42.20;19.20;;;;;;5109575;27;20530;-65
2021/09/05 00:11:52;;;;;;;2.67;1.83;;;42.20;18.90;;;;;;5112794;27;20077;-65
2021/09/05 00:14:19;;;;;;;4.45;1.70;;;42.10;19.30;;;;;;5110473;27;21603;-64
2021/09/05 00:16:45;;;;;;;4.13;1.63;;;41.90;19.60;;;;;;5113321;27;20660;-64
2021/09/05 00:19:12;;;;;;;7.40;2.00;;;41.80;19.60;;;;;;5108626;27;20072;-64
2021/09/05 00:21:38;;;;;;;10.80;1.85;;;41.70;19.70;;;;;;5112485;27;20138;-64
2021/09/05 00:24:05;;;;;;;4.00;1.73;;;41.60;20.10;;;;;;5111627;27;20070;-66
2021/09/05 00:26:32;;;;;;;4.07;1.80;;;41.50;19.50;;;;;;5109820;27;20071;-64
2021/09/05 00:28:59;;;;;;;6.00;1.50;;;41.30;20.10;;;;;;5118009;27;20474;-65
2021/09/05 00:31:25;;;;;;;6.60;1.90;;;41.30;20.10;;;;;;5119036;27;20091;-64
2021/09/05 00:33:52;;;;;;;4.47;1.80;;;41.30;20.10;;;;;;5114648;27;20119;-65
2021/09/05 00:36:19;;;;;;;4.70;1.70;;;41.30;19.70;;;;;;5114024;27;20085;-64
2021/09/05 00:38:45;;;;;;;7.68;1.52;;;41.30;20.20;;;;;;5107769;27;20074;-65
2021/09/05 00:41:12;;;;;;;7.35;1.75;;;41.00;19.60;;;;;;5110077;27;20554;-64
2021/09/05 00:43:55;;;;;;;5.95;2.00;;;41.00;20.60;;;;;;5107200;27;20099;-65
2021/09/05 00:46:21;;;;;;;9.48;2.28;;;40.90;21.00;;;;;;5112283;27;20564;-64
2021/09/05 00:48:48;;;;;;;5.18;1.67;;;40.80;22.10;;;;;;5114753;27;20484;-64
2021/09/05 00:51:14;;;;;;;5.60;1.70;;;40.80;21.20;;;;;;5107793;27;20082;-64
2021/09/05 00:53:41;;;;;;;6.72;1.80;;;40.70;20.90;;;;;;5111997;27;20069;-64
2021/09/05 00:56:09;;;;;;;5.18;1.60;;;40.70;20.50;;;;;;5113929;27;20481;-64
2021/09/05 00:58:38;;;;;;;4.20;1.83;;;40.80;21.00;;;;;;5112694;27;20079;-64
2021/09/05 01:01:04;;;;;;;2.78;1.85;;;40.60;21.00;;;;;;5114493;27;20066;-64
2021/09/05 01:03:31;;;;;;;5.03;1.52;;;40.70;20.30;;;;;;5109288;28;20162;-64
2021/09/05 01:05:57;;;;;;;5.38;2.13;;;40.70;20.50;;;;;;5116604;27;20125;-64
2021/09/05 01:08:25;;;;;;;4.55;1.58;;;40.60;20.60;;;;;;5113055;27;20086;-64
2021/09/05 01:10:52;;;;;;;3.72;1.70;;;40.50;21.80;;;;;;5112588;27;20075;-64
2021/09/05 01:13:19;;;;;;;5.15;1.80;;;40.40;22.10;;;;;;5113937;27;20080;-64
2021/09/05 01:15:45;;;;;;;8.68;1.95;;;40.30;20.90;;;;;;5118458;27;20515;-65
2021/09/05 01:18:12;;;;;;;6.45;1.52;;;40.20;20.90;;;;;;5113601;27;20080;-64
2021/09/05 01:20:38;;;;;;;4.40;1.52;;;40.10;20.70;;;;;;5117402;27;20079;-64
2021/09/05 01:23:05;;;;;;;9.05;1.73;;;40.10;20.80;;;;;;5118794;27;20118;-52
2021/09/05 01:25:31;;;;;;;4.63;1.80;;;39.90;22.00;;;;;;5112721;27;20082;-50
2021/09/05 01:27:58;;;;;;;4.97;1.67;;;39.70;22.30;;;;;;5112632;27;20115;-49
2021/09/05 01:30:24;;;;;;;2.22;1.63;;;39.60;21.60;;;;;;5111034;27;20084;-51
2021/09/05 01:32:51;;;;;;;6.28;1.65;;;39.60;22.50;;;;;;5113039;27;20123;-53
2021/09/05 01:35:17;;;;;;;4.18;1.77;;;39.50;22.90;;;;;;5117626;27;20561;-49
2021/09/05 01:37:44;;;;;;;6.05;1.85;;;39.50;22.70;;;;;;5115898;27;20437;-51
2021/09/05 01:40:11;;;;;;;5.50;1.55;;;39.30;22.50;;;;;;5114770;27;20424;-52
2021/09/05 01:42:37;;;;;;;5.75;2.00;;;39.20;22.70;;;;;;5114255;28;20072;-49
2021/09/05 01:45:04;;;;;;;7.57;1.55;;;39.10;22.80;;;;;;5113620;28;20529;-51
2021/09/05 01:47:31;;;;;;;8.10;2.03;;;39.00;23.30;;;;;;5115901;28;20128;-54
2021/09/05 01:49:57;;;;;;;8.63;1.85;;;38.90;22.90;;;;;;5116147;28;20581;-54
2021/09/05 01:52:24;;;;;;;5.30;2.15;;;38.80;22.80;;;;;;5119399;28;20072;-52
2021/09/05 01:54:50;;;;;;;12.23;2.00;;;38.70;22.90;;;;;;5113828;28;20115;-52
2021/09/05 01:57:17;;;;;;;6.95;2.10;;;38.70;23.00;;;;;;5113146;28;20079;-52
2021/09/05 01:59:43;;;;;;;14.88;2.80;;;38.60;23.00;;;;;;5116451;28;20080;-54
2021/09/05 02:02:10;;;;;;;9.32;2.78;;;38.50;23.40;;;;;;5119263;28;20155;-53
2021/09/05 02:04:36;;;;;;;13.13;2.95;;;38.40;24.20;;;;;;5114548;28;20091;-49
2021/09/05 02:07:03;;;;;;;12.57;2.88;;;38.30;24.30;;;;;;5114122;28;20078;-53
2021/09/05 02:09:29;;;;;;;8.27;2.30;;;38.20;24.90;;;;;;5111662;28;20072;-51
2021/09/05 02:11:56;;;;;;;11.85;2.53;;;38.10;24.90;;;;;;5118347;28;20106;-51
2021/09/05 02:14:22;;;;;;;13.52;2.60;;;38.00;24.70;;;;;;5117906;28;20122;-51
2021/09/05 02:16:49;;;;;;;11.82;2.75;;;37.90;24.70;;;;;;5113565;28;20133;-54
2021/09/05 02:19:15;;;;;;;9.10;2.38;;;37.80;24.90;;;;;;5114951;28;20229;-54
2021/09/05 02:21:42;;;;;;;9.68;2.33;;;37.70;25.00;;;;;;5116381;28;20084;-53
2021/09/05 02:24:08;;;;;;;10.55;2.40;;;37.60;25.10;;;;;;5114714;28;20064;-48
2021/09/05 02:26:35;;;;;;;7.22;2.40;;;37.50;24.70;;;;;;5112063;28;20072;-52
2021/09/05 02:29:01;;;;;;;8.00;3.03;;;37.30;24.50;;;;;;5110502;28;20072;-51
2021/09/05 02:31:28;;;;;;;15.02;4.95;;;37.30;24.90;;;;;;5121783;27;20079;-52
2021/09/05 02:33:54;;;;;;;15.68;5.30;;;37.10;25.10;;;;;;5115659;27;20119;-53
2021/09/05 02:36:21;;;;;;;8.63;3.90;;;37.00;25.20;;;;;;5117341;27;20082;-53
2021/09/05 02:38:47;;;;;;;9.02;3.88;;;37.00;25.20;;;;;;5118116;27;20590;-52
2021/09/05 02:41:14;;;;;;;16.80;4.15;;;36.90;25.20;;;;;;5120372;27;20102;-51
2021/09/05 02:43:40;;;;;;;8.77;4.00;;;36.80;25.30;;;;;;5118676;27;20114;-50
2021/09/05 02:46:07;;;;;;;12.85;3.67;;;36.80;25.40;;;;;;5119821;27;20106;-52
2021/09/05 02:48:33;;;;;;;18.05;3.88;;;36.60;24.80;;;;;;5115679;27;20086;-50
2021/09/05 02:51:00;;;;;;;8.02;3.60;;;36.60;25.40;;;;;;5117281;27;20168;-53
2021/09/05 02:53:26;;;;;;;11.60;4.72;;;36.60;25.50;;;;;;5118499;27;20087;-53
2021/09/05 02:55:52;;;;;;;12.80;4.95;;;36.60;25.60;;;;;;5115320;27;20517;-52
2021/09/05 02:58:19;;;;;;;17.67;5.78;;;36.50;25.80;;;;;;5114930;27;20527;-52
2021/09/05 03:00:45;;;;;;;15.63;4.72;;;36.50;25.80;;;;;;5117813;27;20072;-51
2021/09/05 03:03:12;;;;;;;11.30;5.50;;;36.50;25.90;;;;;;5121636;27;20076;-51
2021/09/05 03:05:39;;;;;;;15.63;5.00;;;36.50;26.20;;;;;;5118694;27;20077;-49
2021/09/05 03:08:05;;;;;;;17.98;4.82;;;36.40;26.40;;;;;;5116144;27;20526;-49
2021/09/05 03:10:32;;;;;;;11.73;5.30;;;36.40;26.20;;;;;;5120198;27;20091;-51
2021/09/05 03:12:58;;;;;;;13.18;5.68;;;36.40;26.10;;;;;;5120065;27;20087;-49
2021/09/05 03:15:25;;;;;;;15.32;6.82;;;36.30;26.20;;;;;;5118887;27;20173;-54
2021/09/05 03:17:51;;;;;;;27.42;7.13;;;36.20;26.00;;;;;;5113721;27;20159;-53
2021/09/05 03:20:18;;;;;;;20.20;7.13;;;36.10;26.50;;;;;;5118980;27;20145;-49
2021/09/05 03:22:44;;;;;;;16.23;7.05;;;36.10;26.30;;;;;;5118114;27;20072;-49
2021/09/05 03:25:11;;;;;;;18.17;7.07;;;36.00;26.60;;;;;;5122313;27;20072;-52
2021/09/05 03:27:38;;;;;;;24.27;7.57;;;35.90;26.60;;;;;;5118044;27;20078;-53
2021/09/05 03:30:05;;;;;;;13.45;6.70;;;36.00;26.90;;;;;;5117516;27;20517;-54
2021/09/05 03:32:31;;;;;;;18.23;6.07;;;35.90;26.90;;;;;;5115966;27;20076;-53
2021/09/05 03:34:58;;;;;;;18.83;7.60;;;35.80;27.00;;;;;;5117497;27;20095;-51
2021/09/05 03:37:25;;;;;;;18.15;8.27;;;35.70;27.30;;;;;;5117997;27;20117;-49
2021/09/05 03:39:51;;;;;;;21.05;9.80;;;35.70;27.00;;;;;;5120056;27;20072;-52
2021/09/05 03:42:18;;;;;;;29.48;12.63;;;35.60;27.30;;;;;;5117127;27;20159;-50
2021/09/05 03:44:44;;;;;;;25.30;12.02;;;35.60;27.70;;;;;;5115754;27;20098;-53
2021/09/05 03:47:12;;;;;;;22.80;11.93;;;35.60;28.10;;;;;;5102181;28;20072;-50
2021/09/05 03:49:38;;;;;;;26.55;12.25;;;35.60;28.20;;;;;;5116640;27;20107;-54
2021/09/05 03:52:05;;;;;;;38.33;22.83;;;35.40;28.40;;;;;;5118734;27;20071;-53
2021/09/05 03:54:32;;;;;;;65.07;25.83;;;35.30;28.70;;;;;;5120285;27;20092;-54
2021/09/05 03:56:58;;;;;;;54.13;27.08;;;35.20;29.10;;;;;;5121263;27;20068;-54
2021/09/05 03:59:25;;;;;;;58.92;35.92;;;35.20;29.40;;;;;;5120383;27;20159;-54
2021/09/05 04:01:51;;;;;;;59.90;34.78;;;35.10;29.70;;;;;;5112080;27;20072;-54
2021/09/05 04:04:18;;;;;;;59.97;35.42;;;35.10;29.70;;;;;;5120090;27;20096;-55
2021/09/05 04:06:49;;;;;;;60.88;35.15;;;35.00;30.00;;;;;;5120079;27;20409;-54
2021/09/05 04:12:01;;;;;;;49.70;27.23;;;34.90;30.30;;;;;;5114764;27;20084;-51
2021/09/05 04:14:27;;;;;;;47.33;27.73;;;34.90;30.30;;;;;;5122539;27;20115;-50
2021/09/05 04:16:53;;;;;;;54.85;28.00;;;34.90;30.90;;;;;;5117970;27;20116;-56
2021/09/05 04:19:20;;;;;;;47.55;25.42;;;34.80;30.60;;;;;;5117302;27;20433;-52
2021/09/05 04:21:46;;;;;;;42.13;23.17;;;34.80;30.60;;;;;;5117262;27;20068;-49
2021/09/05 04:24:13;;;;;;;48.55;21.58;;;34.70;31.20;;;;;;5119968;27;20125;-52
2021/09/05 04:26:39;;;;;;;38.50;20.98;;;34.70;30.80;;;;;;5113264;27;20579;-54
2021/09/05 04:29:06;;;;;;;43.45;24.20;;;34.70;30.70;;;;;;5120251;27;20436;-51
2021/09/05 04:31:32;;;;;;;45.88;26.88;;;34.60;30.80;;;;;;5114301;27;20104;-52
2021/09/05 04:33:59;;;;;;;45.22;23.05;;;34.50;31.60;;;;;;5113355;27;20120;-50
2021/09/05 04:36:25;;;;;;;37.75;18.17;;;34.50;31.00;;;;;;5116520;27;20076;-49
2021/09/05 04:38:52;;;;;;;30.25;15.25;;;34.50;31.30;;;;;;5117558;27;20095;-52
2021/09/05 04:41:18;;;;;;;35.75;14.48;;;34.40;30.90;;;;;;5118909;27;20103;-51
2021/09/05 04:43:44;;;;;;;36.75;14.35;;;34.40;31.80;;;;;;5118715;27;20087;-52
2021/09/05 04:46:11;;;;;;;35.20;11.75;;;34.40;31.50;;;;;;5114641;27;20167;-55
2021/09/05 04:48:37;;;;;;;33.03;11.48;;;34.30;30.90;;;;;;5118773;27;20082;-53
2021/09/05 04:51:04;;;;;;;28.85;10.40;;;34.30;31.40;;;;;;5119794;27;20128;-51
2021/09/05 04:53:30;;;;;;;27.67;10.50;;;34.20;31.40;;;;;;5119043;27;20072;-54
2021/09/05 04:55:57;;;;;;;18.48;8.43;;;34.10;30.80;;;;;;5099794;27;20103;-51
2021/09/05 04:58:23;;;;;;;21.95;9.00;;;34.10;30.60;;;;;;5117809;27;20068;-54
2021/09/05 05:00:50;;;;;;;26.13;9.52;;;34.00;30.80;;;;;;5115824;27;20068;-49
2021/09/05 05:03:17;;;;;;;29.17;10.32;;;33.90;30.80;;;;;;5113309;27;20141;-51
2021/09/05 05:05:44;;;;;;;24.50;9.40;;;33.90;31.40;;;;;;5116003;27;20090;-51
2021/09/05 05:08:10;;;;;;;23.20;8.27;;;33.90;32.40;;;;;;5115925;27;20146;-50
2021/09/05 05:10:37;;;;;;;23.30;9.98;;;33.80;30.50;;;;;;5116437;27;20079;-52
2021/09/05 05:13:04;;;;;;;23.67;9.35;;;33.80;29.30;;;;;;5117399;27;20079;-54
2021/09/05 05:15:30;;;;;;;18.98;8.55;;;33.80;30.70;;;;;;5117702;27;20177;-52
2021/09/05 05:17:58;;;;;;;19.23;8.88;;;33.70;31.80;;;;;;5114769;27;20080;-50
2021/09/05 05:20:24;;;;;;;16.65;8.55;;;33.60;31.20;;;;;;5112580;27;20084;-51
2021/09/05 05:22:51;;;;;;;15.95;8.30;;;33.60;30.60;;;;;;5118023;27;20125;-51
2021/09/05 05:25:17;;;;;;;20.38;8.88;;;33.60;31.00;;;;;;5100498;27;20087;-50
2021/09/05 05:27:44;;;;;;;18.52;8.85;;;33.60;30.90;;;;;;5116730;27;20076;-49
2021/09/05 05:30:10;;;;;;;20.52;9.05;;;33.60;31.40;;;;;;5118239;27;20075;-51
2021/09/05 05:32:37;;;;;;;23.13;9.20;;;33.50;31.30;;;;;;5112986;27;20532;-52
2021/09/05 05:35:10;;;;;;;16.60;8.38;;;33.50;31.70;;;;;;5094771;28;20103;-51
2021/09/05 05:37:37;;;;;;;20.48;8.27;;;33.50;31.90;;;;;;5098396;28;20749;-49
2021/09/05 05:40:06;;;;;;;17.60;8.30;;;33.40;31.90;;;;;;5115921;27;20138;-48
2021/09/05 05:42:33;;;;;;;19.80;9.18;;;33.40;32.00;;;;;;5115876;27;20080;-53
2021/09/05 05:44:59;;;;;;;19.60;8.45;;;33.30;31.90;;;;;;5114617;27;20080;-51
2021/09/05 05:47:28;;;;;;;29.60;9.25;;;33.30;32.50;;;;;;5099217;28;20068;-53
2021/09/05 05:49:55;;;;;;;22.15;9.90;;;33.20;32.50;;;;;;5114738;28;20146;-56
2021/09/05 05:52:21;;;;;;;33.58;13.60;;;33.10;33.10;;;;;;5113571;28;20082;-51
2021/09/05 05:54:48;;;;;;;41.28;14.93;;;33.10;31.70;;;;;;5112168;28;20160;-52
2021/09/05 05:57:14;;;;;;;34.13;14.27;;;33.20;32.00;;;;;;5112563;28;20095;-50
2021/09/05 05:59:40;;;;;;;31.35;12.20;;;33.30;31.40;;;;;;5115588;28;20079;-55
2021/09/05 06:02:07;;;;;;;30.88;11.35;;;33.30;31.70;;;;;;5113832;28;20107;-54
2021/09/05 06:04:33;;;;;;;30.70;10.27;;;33.30;31.10;;;;;;5114225;28;20156;-49
2021/09/05 06:07:00;;;;;;;28.05;9.82;;;33.30;31.10;;;;;;5114939;27;20073;-53
2021/09/05 06:09:26;;;;;;;30.70;9.18;;;33.30;30.90;;;;;;5117944;27;20080;-52
2021/09/05 06:11:53;;;;;;;35.08;9.82;;;33.30;31.00;;;;;;5117920;27;20091;-51
2021/09/05 06:14:19;;;;;;;25.08;9.30;;;33.30;31.30;;;;;;5115865;27;20134;-52
2021/09/05 06:16:46;;;;;;;32.45;8.77;;;33.20;30.60;;;;;;5120056;27;20075;-53
2021/09/05 06:19:14;;;;;;;21.48;8.30;;;33.10;31.00;;;;;;5096909;27;20072;-53
2021/09/05 06:21:40;;;;;;;22.80;6.68;;;33.10;30.20;;;;;;5116484;27;20069;-52
2021/09/05 06:24:06;;;;;;;17.80;6.55;;;33.10;29.60;;;;;;5113853;27;20084;-51
2021/09/05 06:26:33;;;;;;;16.77;6.43;;;33.10;29.40;;;;;;5118986;27;20084;-54
2021/09/05 06:28:59;;;;;;;22.83;5.68;;;33.10;29.20;;;;;;5118008;27;20070;-55
2021/09/05 06:31:26;;;;;;;13.00;4.72;;;33.10;28.90;;;;;;5115139;27;20430;-53
2021/09/05 06:33:52;;;;;;;13.30;3.35;;;33.10;27.90;;;;;;5114828;27;20119;-52
2021/09/05 06:36:19;;;;;;;16.58;3.15;;;33.10;26.70;;;;;;5093354;28;20112;-51
2021/09/05 06:38:45;;;;;;;14.68;2.97;;;33.20;26.00;;;;;;5114668;27;20073;-49
2021/09/05 06:41:12;;;;;;;7.93;2.65;;;33.30;25.80;;;;;;5096788;27;20126;-54
2021/09/05 06:43:39;;;;;;;6.78;2.90;;;33.30;26.20;;;;;;5121444;27;20171;-50
2021/09/05 06:46:05;;;;;;;11.15;2.80;;;33.30;26.30;;;;;;5111916;27;20068;-54
2021/09/05 06:48:32;;;;;;;6.13;2.92;;;33.20;26.80;;;;;;5119084;27;20087;-50
2021/09/05 06:50:59;;;;;;;8.35;2.72;;;33.20;26.60;;;;;;5112283;27;20071;-51
2021/09/05 06:53:25;;;;;;;16.60;3.10;;;33.10;26.80;;;;;;5116898;27;20128;-51
2021/09/05 06:55:52;;;;;;;11.18;3.15;;;33.10;26.40;;;;;;5109655;27;20470;-52
2021/09/05 06:58:18;;;;;;;8.73;3.13;;;33.10;27.70;;;;;;5112280;27;20159;-50
2021/09/05 07:00:45;;;;;;;13.60;3.20;;;33.10;26.20;;;;;;5114783;27;20075;-53
2021/09/05 07:03:11;;;;;;;14.95;3.47;;;33.10;25.90;;;;;;5114890;27;20446;-48
2021/09/05 07:05:38;;;;;;;11.45;4.10;;;33.20;26.20;;;;;;5097526;27;20076;-51
2021/09/05 07:08:05;;;;;;;15.10;3.80;;;33.10;25.60;;;;;;5116622;27;20080;-51
2021/09/05 07:10:31;;;;;;;24.15;4.78;;;33.10;25.90;;;;;;5119991;27;20079;-51
2021/09/05 07:12:58;;;;;;;22.73;5.00;;;33.10;26.30;;;;;;5115544;27;20525;-51
2021/09/05 07:15:24;;;;;;;29.85;5.35;;;33.10;27.20;;;;;;5116621;27;20092;-52
2021/09/05 07:17:51;;;;;;;35.25;5.13;;;33.10;27.00;;;;;;5114276;27;20444;-51
2021/09/05 07:20:17;;;;;;;21.38;3.78;;;33.00;27.10;;;;;;5115946;27;20498;-49
2021/09/05 07:22:44;;;;;;;19.08;4.45;;;33.00;27.50;;;;;;5116773;27;20072;-49
2021/09/05 07:25:10;;;;;;;14.70;3.33;;;32.80;27.70;;;;;;5113955;27;20128;-51
2021/09/05 07:27:37;;;;;;;10.07;3.13;;;32.80;27.40;;;;;;5111353;27;20741;-52
2021/09/05 07:30:06;;;;;;;7.95;3.20;;;32.80;26.30;;;;;;5117663;27;20083;-51
2021/09/05 07:32:33;;;;;;;8.88;3.33;;;32.90;26.00;;;;;;5110707;27;20093;-54
2021/09/05 07:35:00;;;;;;;9.88;3.30;;;32.90;26.30;;;;;;5111980;27;20100;-51
2021/09/05 07:37:26;;;;;;;9.82;3.72;;;32.90;25.60;;;;;;5115690;27;20081;-52
2021/09/05 07:39:53;;;;;;;10.88;3.67;;;33.00;26.00;;;;;;5112506;27;20071;-50
2021/09/05 07:42:19;;;;;;;6.28;3.15;;;33.00;25.50;;;;;;5115645;27;20103;-54
2021/09/05 07:44:46;;;;;;;9.40;3.03;;;33.10;25.20;;;;;;5115308;27;20080;-51
2021/09/05 07:47:12;;;;;;;5.53;3.30;;;33.10;25.20;;;;;;5118417;27;20124;-52
2021/09/05 07:49:39;;;;;;;9.60;3.08;;;33.00;25.70;;;;;;5115053;27;20171;-52
2021/09/05 07:52:05;;;;;;;6.07;3.10;;;33.10;26.00;;;;;;5115421;27;20237;-49
2021/09/05 07:54:32;;;;;;;8.90;3.00;;;33.00;26.10;;;;;;5116006;27;20147;-52
2021/09/05 07:56:58;;;;;;;7.55;3.10;;;32.90;26.10;;;;;;5112741;27;20072;-51
2021/09/05 07:59:25;;;;;;;9.13;3.20;;;32.90;26.60;;;;;;5116058;27;20072;-51
2021/09/05 08:01:51;;;;;;;7.90;2.95;;;32.80;26.80;;;;;;5118080;27;20431;-54
2021/09/05 08:04:18;;;;;;;9.48;3.60;;;32.70;26.80;;;;;;5110896;27;20107;-52
2021/09/05 08:06:44;;;;;;;6.97;3.30;;;32.60;26.60;;;;;;5118050;27;20079;-53
2021/09/05 08:09:10;;;;;;;15.02;3.47;;;32.60;26.70;;;;;;5113002;27;20074;-51
2021/09/05 08:11:37;;;;;;;13.38;4.20;;;32.60;26.60;;;;;;5116193;27;20525;-50
2021/09/05 08:14:03;;;;;;;12.43;3.58;;;32.60;26.80;;;;;;5114734;27;20113;-54
2021/09/05 08:16:30;;;;;;;11.10;3.60;;;32.50;27.90;;;;;;5115956;27;20075;-52
2021/09/05 08:18:56;;;;;;;12.80;3.80;;;32.40;27.60;;;;;;5113912;27;20095;-50
2021/09/05 08:21:23;;;;;;;9.38;3.95;;;32.30;27.50;;;;;;5117794;27;20094;-51
2021/09/05 08:23:49;;;;;;;13.32;4.00;;;32.30;27.70;;;;;;5114762;27;20070;-50
2021/09/05 08:26:16;;;;;;;16.65;4.15;;;32.30;27.60;;;;;;5115574;27;20087;-52
2021/09/05 08:28:43;;;;;;;14.82;4.65;;;32.30;27.50;;;;;;5114546;27;20075;-52
2021/09/05 08:31:10;;;;;;;12.23;3.83;;;32.30;27.70;;;;;;5094121;28;20095;-51
2021/09/05 08:33:37;;;;;;;11.65;4.50;;;32.20;29.20;;;;;;5118565;27;20573;-53
2021/09/05 08:36:04;;;;;;;15.70;4.30;;;32.00;29.10;;;;;;5112231;27;20097;-50
2021/09/05 08:38:31;;;;;;;24.38;5.25;;;31.90;29.10;;;;;;5120661;27;20076;-51
2021/09/05 08:40:58;;;;;;;22.52;5.10;;;31.90;28.80;;;;;;5114900;27;20088;-51
2021/09/05 08:43:25;;;;;;;31.35;6.22;;;31.90;28.70;;;;;;5113205;27;20076;-51
2021/09/05 08:45:51;;;;;;;36.25;6.80;;;31.90;29.10;;;;;;5094317;28;20488;-52
2021/09/05 08:48:20;;;;;;;39.22;7.18;;;31.80;29.20;;;;;;5115027;27;20137;-50
2021/09/05 08:50:48;;;;;;;29.48;7.10;;;31.80;29.10;;;;;;5108817;27;20072;-51
2021/09/05 08:53:16;;;;;;;43.83;8.10;;;31.80;30.20;;;;;;5113684;27;20076;-49
2021/09/05 08:55:46;;;;;;;52.45;9.45;;;31.80;30.70;;;;;;5111050;27;20133;-49
2021/09/05 08:58:13;;;;;;;53.15;9.73;;;31.70;31.00;;;;;;5113977;27;20073;-49
2021/09/05 09:00:42;;;;;;;70.30;13.00;;;31.60;31.30;;;;;;5114684;27;20107;-50
2021/09/05 09:03:18;;;;;;;58.08;12.57;;;31.60;31.20;;;;;;5116213;27;20076;-49
2021/09/05 09:05:46;;;;;;;60.75;12.70;;;31.60;30.90;;;;;;5114384;27;20532;-51
2021/09/05 09:08:15;;;;;;;62.50;12.32;;;31.50;32.30;;;;;;5114533;27;20462;-53
2021/09/05 09:10:57;;;;;;;73.80;13.50;;;31.40;32.70;;;;;;5115436;27;20087;-49
2021/09/05 09:13:39;;;;;;;70.97;13.95;;;31.40;32.90;;;;;;5113225;27;20075;-48
2021/09/05 09:16:09;;;;;;;71.22;13.40;;;31.30;33.30;;;;;;5116586;27;20100;-49
2021/09/05 09:18:37;;;;;;;78.15;14.27;;;31.20;35.20;;;;;;5095280;27;20560;-52
2021/09/05 09:21:09;;;;;;;90.75;15.60;;;31.10;34.30;;;;;;5114881;27;20084;-54
2021/09/05 09:23:38;;;;;;;80.85;15.13;;;31.10;34.70;;;;;;5115841;27;20087;-49
2021/09/05 09:26:09;;;;;;;84.45;16.10;;;31.10;35.80;;;;;;5111864;27;20072;-49
2021/09/05 09:28:40;;;;;;;75.18;16.08;;;31.00;35.30;;;;;;5110855;27;20524;-53
2021/09/05 09:31:14;;;;;;;98.15;16.08;;;31.00;35.40;;;;;;5113421;27;20080;-53
2021/09/05 09:33:46;;;;;;;75.25;13.93;;;31.00;35.30;;;;;;5115991;27;20107;-54
2021/09/05 09:36:17;;;;;;;83.70;15.90;;;30.90;35.60;;;;;;5117083;27;20099;-51
2021/09/05 09:39:01;;;;;;;80.95;15.10;;;30.90;35.90;;;;;;5111795;27;20072;-50
2021/09/05 09:41:32;;;;;;;87.90;14.77;;;30.80;36.50;;;;;;5116757;27;20544;-49
2021/09/05 09:44:06;;;;;;;89.82;15.95;;;30.80;36.30;;;;;;5111307;27;20531;-55
2021/09/05 09:46:38;;;;;;;73.65;15.60;;;30.80;36.30;;;;;;5113934;27;20114;-50
2021/09/05 09:49:09;;;;;;;110.05;16.98;;;30.80;36.90;;;;;;5112896;28;20076;-49
2021/09/05 09:51:37;;;;;;;95.18;17.27;;;30.70;36.80;;;;;;5112936;28;20080;-54
2021/09/05 09:54:04;;;;;;;76.97;15.75;;;30.60;37.00;;;;;;5113685;28;20073;-53
2021/09/05 09:56:31;;;;;;;85.10;16.70;;;30.60;38.00;;;;;;5109405;28;20167;-53
2021/09/05 09:59:01;;;;;;;101.50;15.30;;;30.60;38.20;;;;;;5115149;28;21388;-50
2021/09/05 10:01:30;;;;;;;67.70;14.70;;;30.60;40.70;;;;;;5116595;28;20433;-49
2021/09/05 10:04:01;;;;;;;59.45;11.50;;;30.70;44.60;;;;;;5113126;28;20496;-51
2021/09/05 10:06:32;;;;;;;37.40;7.38;;;30.70;54.70;;;;;;5111719;28;20100;-50
2021/09/05 10:09:07;;;;;;;26.00;7.00;;;30.70;62.70;;;;;;5111778;28;20155;-49
2021/09/05 10:11:35;;;;;;;26.60;6.65;;;30.70;70.60;;;;;;5110202;28;20075;-50
2021/09/05 10:14:03;;;;;;;22.88;6.72;;;30.70;75.00;;;;;;5125247;27;20080;-50
2021/09/05 10:16:30;;;;;;;26.27;6.43;;;30.70;76.60;;;;;;5118223;28;20079;-50
2021/09/05 10:19:06;;;;;;;28.77;7.05;;;30.70;78.00;;;;;;5110512;28;20562;-49
2021/09/05 10:21:36;;;;;;;33.08;6.78;;;30.60;79.10;;;;;;5111648;28;20432;-48
2021/09/05 10:24:03;;;;;;;26.40;6.90;;;30.60;80.10;;;;;;5113473;28;20086;-53
2021/09/05 10:26:30;;;;;;;25.27;6.93;;;30.60;81.10;;;;;;5111366;28;20588;-50
2021/09/05 10:28:58;;;;;;;23.40;6.63;;;30.60;82.00;;;;;;5112268;28;20429;-54
2021/09/05 10:31:37;;;;;;;24.23;6.70;;;30.70;82.00;;;;;;5114523;28;20541;-53
2021/09/05 10:34:04;;;;;;;30.92;7.03;;;30.70;82.50;;;;;;5111756;28;20160;-50
2021/09/05 10:36:42;;;;;;;28.33;7.28;;;30.60;82.80;;;;;;5111491;28;20145;-49
2021/09/05 10:39:09;;;;;;;22.58;6.28;;;30.60;82.90;;;;;;5112159;28;20076;-51
2021/09/05 10:41:54;;;;;;;35.92;7.38;;;30.60;83.60;;;;;;5111107;28;20162;-50
2021/09/05 10:44:21;;;;;;;27.95;7.55;;;30.50;83.90;;;;;;5112730;28;20090;-51
2021/09/05 10:46:49;;;;;;;28.50;7.85;;;30.50;84.20;;;;;;5117656;28;20155;-51
2021/09/05 10:49:17;;;;;;;32.83;8.73;;;30.40;83.40;;;;;;5112226;28;20109;-48
2021/09/05 10:51:51;;;;;;;33.63;9.27;;;30.40;83.10;;;;;;5114426;28;20525;-48
2021/09/05 10:54:25;;;;;;;44.00;9.88;;;30.40;83.30;;;;;;5116451;27;20131;-52
2021/09/05 10:56:52;;;;;;;31.95;10.40;;;30.30;83.40;;;;;;5116475;27;20075;-53
2021/09/05 10:59:23;;;;;;;36.95;10.48;;;30.30;83.40;;;;;;5117774;27;20076;-50
2021/09/05 11:01:49;;;;;;;32.78;11.00;;;30.30;83.50;;;;;;5118827;27;20094;-55
2021/09/05 11:04:24;;;;;;;38.50;12.05;;;30.30;83.50;;;;;;5115992;27;20179;-49
2021/09/05 11:07:00;;;;;;;37.63;12.48;;;30.30;83.40;;;;;;5117681;27;20087;-53
2021/09/05 11:09:26;;;;;;;39.28;12.07;;;30.30;83.60;;;;;;5118338;27;20067;-54
2021/09/05 11:11:54;;;;;;;37.63;13.30;;;30.20;83.70;;;;;;5119280;27;20094;-51
2021/09/05 11:14:45;;;;;;;43.78;13.98;;;30.20;83.80;;;;;;5117159;27;20092;-52
2021/09/05 11:17:16;;;;;;;38.88;12.55;;;30.10;83.90;;;;;;5104436;27;20077;-52
2021/09/05 11:20:12;;;;;;;34.67;12.23;;;30.10;84.30;;;;;;5116489;27;20131;-50
2021/09/05 11:22:42;;;;;;;30.00;11.43;;;30.00;84.40;;;;;;5110603;27;20575;-51
2021/09/05 11:25:25;;;;;;;43.15;11.15;;;30.00;84.70;;;;;;5112151;27;20076;-52
2021/09/05 11:28:00;;;;;;;35.92;10.18;;;30.00;84.70;;;;;;5117860;27;20480;-48
2021/09/05 11:30:36;;;;;;;33.05;8.85;;;29.90;85.10;;;;;;5114340;27;20520;-50
2021/09/05 11:33:09;;;;;;;34.83;9.75;;;29.90;85.60;;;;;;5113075;27;20108;-50
2021/09/05 11:35:45;;;;;;;32.88;8.98;;;29.80;86.00;;;;;;5115227;27;20100;-52
2021/09/05 11:38:13;;;;;;;30.87;8.10;;;29.70;86.60;;;;;;5118719;27;20068;-52
2021/09/05 11:40:54;;;;;;;24.20;7.55;;;29.70;86.90;;;;;;5118031;27;20547;-52
2021/09/05 11:43:33;;;;;;;30.38;8.15;;;29.70;87.40;;;;;;5113397;27;20083;-48
2021/09/05 11:46:09;;;;;;;35.13;9.80;;;29.70;87.90;;;;;;5112536;27;20189;-50
2021/09/05 11:48:36;;;;;;;24.95;7.80;;;29.60;88.20;;;;;;5115869;27;20076;-49
2021/09/05 11:51:03;;;;;;;19.90;7.13;;;29.70;88.10;;;;;;5117058;27;20170;-48
2021/09/05 11:53:30;;;;;;;24.77;7.53;;;29.60;88.60;;;;;;5118720;27;20356;-50
2021/09/05 11:55:57;;;;;;;26.90;7.45;;;29.60;89.80;;;;;;5117034;27;20139;-51
2021/09/05 11:58:24;;;;;;;49.35;15.93;;;29.60;89.80;;;;;;5115610;27;20131;-51
2021/09/05 12:00:55;;;;;;;41.33;20.63;;;29.50;90.00;;;;;;5115703;27;20483;-48
2021/09/05 12:03:25;;;;;;;50.83;23.15;;;29.40;90.40;;;;;;5115895;27;20537;-48
2021/09/05 12:05:54;;;;;;;34.30;14.73;;;29.40;90.70;;;;;;5113356;27;20099;-53
2021/09/05 12:08:21;;;;;;;28.83;9.70;;;29.30;91.30;;;;;;5113150;27;20132;-50
2021/09/05 12:11:01;;;;;;;25.58;8.48;;;29.30;91.70;;;;;;5110185;27;20076;-50
2021/09/05 12:13:27;;;;;;;26.67;6.78;;;29.40;91.90;;;;;;5113965;27;20079;-51
2021/09/05 12:15:53;;;;;;;27.92;6.45;;;29.40;92.00;;;;;;5118080;27;20108;-48
2021/09/05 12:18:25;;;;;;;24.75;5.47;;;29.50;92.00;;;;;;5112525;27;20068;-49
2021/09/05 12:20:53;;;;;;;19.58;5.82;;;29.50;92.10;;;;;;5114879;27;20095;-51
2021/09/05 12:23:24;;;;;;;28.67;6.30;;;29.40;95.50;;;;;;5115632;27;20156;-48
2021/09/05 12:25:52;;;;;;;20.08;5.40;;;29.50;93.00;;;;;;5109945;27;20064;-48
2021/09/05 12:28:24;;;;;;;20.85;6.13;;;29.50;92.90;;;;;;5112881;27;21424;-52
2021/09/05 12:30:53;;;;;;;25.77;6.68;;;29.60;93.00;;;;;;5116172;27;20528;-49
2021/09/05 12:33:31;;;;;;;28.80;6.20;;;29.60;93.20;;;;;;5110098;27;20522;-50
2021/09/05 12:36:15;;;;;;;15.43;5.38;;;29.50;93.30;;;;;;5109533;27;20182;-53
2021/09/05 12:39:02;;;;;;;18.98;5.53;;;29.50;93.50;;;;;;5107009;27;20076;-51
2021/09/05 12:41:33;;;;;;;19.17;5.75;;;29.40;93.80;;;;;;5115097;27;20076;-51
2021/09/05 12:44:05;;;;;;;25.80;6.57;;;29.50;94.40;;;;;;5111024;27;20087;-50